createdAt,value
2022-10-13T00:01:14.025Z,3.05
2022-10-13T00:03:41.939Z,3.28
2022-10-13T00:06:11.087Z,3.33
2022-10-13T00:08:38.320Z,3.53
2022-10-13T00:11:17.322Z,2.72
2022-10-13T00:13:45.131Z,4.50
2022-10-13T00:16:14.254Z,3.65
2022-10-13T00:18:41.057Z,3.85
2022-10-13T00:21:13.987Z,3.45
2022-10-13T00:23:40.966Z,3.20
2022-10-13T00:26:11.019Z,3.58
2022-10-13T00:28:38.623Z,3.13
2022-10-13T00:31:25.159Z,3.45
2022-10-13T00:33:52.965Z,3.70
2022-10-13T00:36:22.277Z,4.03
2022-10-13T00:38:49.275Z,2.78
2022-10-13T00:41:16.190Z,3.85
2022-10-13T00:43:57.894Z,3.80
2022-10-13T00:46:26.813Z,3.78
2022-10-13T00:48:54.669Z,3.28
2022-10-13T00:51:24.474Z,4.15
2022-10-13T00:53:52.839Z,3.92
2022-10-13T00:56:21.638Z,3.97
2022-10-13T00:58:49.597Z,3.63
2022-10-13T01:01:16.987Z,3.55
2022-10-13T01:03:43.544Z,3.78
2022-10-13T01:06:12.628Z,3.50
2022-10-13T01:08:39.237Z,3.88
2022-10-13T01:11:14.849Z,3.90
2022-10-13T01:13:53.503Z,4.35
2022-10-13T01:16:41.500Z,3.80
2022-10-13T01:19:46.687Z,4.30
2022-10-13T01:22:25.854Z,4.00
2022-10-13T01:25:12.177Z,3.70
2022-10-13T01:28:01.128Z,3.65
2022-10-13T01:30:29.416Z,3.17
2022-10-13T01:33:26.591Z,4.25
2022-10-13T01:36:16.757Z,3.83
2022-10-13T01:38:57.201Z,4.15
2022-10-13T01:41:37.532Z,3.88
2022-10-13T01:44:16.034Z,4.53
2022-10-13T01:46:46.221Z,3.70
2022-10-13T01:49:16.928Z,4.03
2022-10-13T01:51:44.974Z,3.83
2022-10-13T01:54:11.639Z,4.10
2022-10-13T01:56:38.210Z,5.40
2022-10-13T01:59:14.199Z,4.68
2022-10-13T02:02:08.227Z,4.93
2022-10-13T02:04:59.508Z,4.43
2022-10-13T02:07:35.306Z,4.70
2022-10-13T02:10:07.893Z,4.63
2022-10-13T02:12:43.470Z,4.65
2022-10-13T02:15:15.737Z,4.20
2022-10-13T02:20:10.845Z,4.45
2022-10-13T02:22:42.397Z,4.80
2022-10-13T02:25:09.575Z,4.30
2022-10-13T02:27:35.981Z,4.35
2022-10-13T02:30:03.310Z,4.97
2022-10-13T02:32:29.830Z,4.90
2022-10-13T02:34:56.300Z,4.70
2022-10-13T02:37:25.429Z,4.63
2022-10-13T02:39:52.728Z,3.97
2022-10-13T02:42:19.585Z,4.72
2022-10-13T02:44:46.389Z,4.53
2022-10-13T02:47:13.325Z,4.68
2022-10-13T02:49:39.848Z,4.68
2022-10-13T02:52:07.094Z,5.22
2022-10-13T02:54:33.547Z,5.63
2022-10-13T02:57:01.172Z,4.60
2022-10-13T02:59:27.925Z,4.70
2022-10-13T03:01:54.569Z,5.25
2022-10-13T03:04:20.958Z,4.72
2022-10-13T03:06:47.571Z,4.32
2022-10-13T03:09:14.147Z,4.00
2022-10-13T03:11:40.722Z,4.18
2022-10-13T03:14:07.332Z,4.40
2022-10-13T03:16:33.901Z,5.50
2022-10-13T03:19:00.460Z,4.43
2022-10-13T03:21:27.089Z,5.28
2022-10-13T03:23:54.134Z,4.90
2022-10-13T03:26:20.674Z,5.25
2022-10-13T03:28:50.840Z,4.43
2022-10-13T03:31:18.811Z,4.60
2022-10-13T03:33:45.751Z,4.63
2022-10-13T03:36:13.406Z,5.05
2022-10-13T03:38:40.275Z,4.75
2022-10-13T03:41:09.295Z,5.13
2022-10-13T03:43:43.613Z,4.90
2022-10-13T03:46:15.065Z,5.22
2022-10-13T03:48:42.322Z,5.40
2022-10-13T03:51:11.693Z,6.65
2022-10-13T03:53:38.076Z,5.88
2022-10-13T03:56:25.039Z,5.72
2022-10-13T03:58:54.551Z,5.70
2022-10-13T04:01:23.526Z,6.35
2022-10-13T04:03:52.586Z,5.97
2022-10-13T04:06:19.235Z,5.90
2022-10-13T04:08:46.256Z,5.45
2022-10-13T04:11:15.555Z,5.90
2022-10-13T04:13:42.670Z,5.80
2022-10-13T04:16:13.463Z,6.70
2022-10-13T04:18:44.509Z,6.22
2022-10-13T04:21:14.955Z,6.05
2022-10-13T04:23:41.924Z,6.43
2022-10-13T04:26:16.559Z,6.00
2022-10-13T04:28:43.492Z,6.65
2022-10-13T04:31:10.072Z,6.25
2022-10-13T04:33:36.963Z,6.97
2022-10-13T04:36:05.495Z,6.85
2022-10-13T04:38:32.260Z,6.50
2022-10-13T04:40:59.279Z,6.65
2022-10-13T04:43:26.372Z,6.70
2022-10-13T04:45:53.183Z,6.53
2022-10-13T04:48:20.647Z,7.70
2022-10-13T04:50:47.041Z,9.73
2022-10-13T04:53:18.926Z,7.05
2022-10-13T04:58:12.984Z,6.70
2022-10-13T05:00:46.460Z,7.28
2022-10-13T05:03:13.460Z,6.10
2022-10-13T05:05:40.078Z,6.85
2022-10-13T05:08:06.692Z,6.95
2022-10-13T05:10:34.886Z,6.55
2022-10-13T05:13:01.846Z,6.18
2022-10-13T05:15:28.262Z,6.63
2022-10-13T05:17:54.889Z,6.57
2022-10-13T05:20:21.537Z,6.32
2022-10-13T05:22:48.087Z,7.00
2022-10-13T05:25:14.750Z,6.15
2022-10-13T05:27:41.552Z,6.50
2022-10-13T05:30:08.810Z,6.97
2022-10-13T05:32:36.069Z,6.78
2022-10-13T05:35:02.649Z,6.90
2022-10-13T05:37:29.052Z,6.70
2022-10-13T05:39:55.930Z,7.32
2022-10-13T05:42:22.820Z,6.93
2022-10-13T05:44:49.888Z,7.30
2022-10-13T05:47:16.692Z,7.28
2022-10-13T05:49:43.516Z,7.35
2022-10-13T05:52:12.756Z,6.72
2022-10-13T05:54:48.535Z,7.57
2022-10-13T05:57:25.962Z,7.10
2022-10-13T05:59:58.175Z,7.25
2022-10-13T06:04:56.794Z,7.18
2022-10-13T06:07:23.869Z,7.40
2022-10-13T06:09:50.944Z,8.38
2022-10-13T06:12:17.769Z,7.88
2022-10-13T06:14:44.517Z,8.00
2022-10-13T06:17:11.050Z,7.68
2022-10-13T06:19:37.930Z,8.10
2022-10-13T06:22:04.582Z,8.60
2022-10-13T06:24:31.738Z,7.82
2022-10-13T06:26:58.421Z,7.90
2022-10-13T06:29:24.974Z,8.80
2022-10-13T06:31:51.703Z,8.45
2022-10-13T06:34:18.438Z,8.05
2022-10-13T06:36:45.197Z,8.32
2022-10-13T06:39:11.892Z,8.40
2022-10-13T06:41:38.531Z,8.10
2022-10-13T06:44:05.818Z,8.82
2022-10-13T06:46:32.573Z,8.95
2022-10-13T06:48:59.484Z,9.05
2022-10-13T06:51:26.333Z,8.38
2022-10-13T06:53:53.180Z,9.25
2022-10-13T06:56:19.939Z,7.90
2022-10-13T06:58:47.115Z,8.88
2022-10-13T07:01:14.822Z,9.07
2022-10-13T07:03:41.340Z,8.60
2022-10-13T07:06:08.413Z,9.20
2022-10-13T07:08:35.826Z,9.80
2022-10-13T07:11:16.166Z,10.40
2022-10-13T07:13:46.282Z,8.82
2022-10-13T07:16:14.420Z,9.05
2022-10-13T07:18:41.031Z,9.98
2022-10-13T07:21:08.039Z,9.27
2022-10-13T07:23:34.938Z,9.88
2022-10-13T07:26:01.884Z,9.90
2022-10-13T07:28:29.298Z,9.85
2022-10-13T07:30:56.270Z,9.65
2022-10-13T07:33:22.839Z,9.90
2022-10-13T07:35:49.339Z,10.48
2022-10-13T07:38:16.609Z,11.23
2022-10-13T07:40:43.302Z,10.30
2022-10-13T07:43:10.105Z,10.45
2022-10-13T07:45:36.882Z,10.77
2022-10-13T07:48:03.838Z,10.48
2022-10-13T07:50:30.759Z,11.25
2022-10-13T07:52:57.418Z,10.43
2022-10-13T07:55:24.141Z,11.32
2022-10-13T07:57:51.008Z,11.18
2022-10-13T08:00:18.021Z,10.68
2022-10-13T08:02:44.756Z,11.43
2022-10-13T08:05:11.258Z,10.27
2022-10-13T08:07:39.372Z,10.70
2022-10-13T08:10:06.462Z,10.50
2022-10-13T08:12:35.640Z,10.57
2022-10-13T08:15:06.177Z,9.80
2022-10-13T08:17:36.039Z,10.52
2022-10-13T08:20:03.784Z,10.88
2022-10-13T08:22:30.332Z,11.93
2022-10-13T08:24:56.910Z,11.18
2022-10-13T08:27:37.059Z,11.30
2022-10-13T08:30:09.783Z,11.52
2022-10-13T08:32:36.233Z,11.75
2022-10-13T08:35:02.750Z,10.75
2022-10-13T08:37:29.470Z,10.98
2022-10-13T08:39:57.017Z,11.48
2022-10-13T08:42:23.789Z,11.75
2022-10-13T08:47:47.453Z,11.73
2022-10-13T08:50:16.797Z,11.50
2022-10-13T08:52:57.854Z,11.73
2022-10-13T08:55:33.198Z,12.38
2022-10-13T08:58:01.571Z,11.23
2022-10-13T09:00:30.384Z,12.02
2022-10-13T09:03:17.930Z,11.90
2022-10-13T09:05:55.697Z,11.40
2022-10-13T09:08:25.035Z,12.27
2022-10-13T09:10:53.149Z,12.40
2022-10-13T09:13:20.431Z,12.80
2022-10-13T09:15:50.209Z,12.60
2022-10-13T09:18:17.052Z,13.10
2022-10-13T09:20:43.705Z,11.23
2022-10-13T09:23:22.638Z,11.88
2022-10-13T09:25:51.768Z,12.05
2022-10-13T09:28:34.168Z,12.23
2022-10-13T09:33:59.741Z,13.27
2022-10-13T09:36:26.849Z,12.73
2022-10-13T09:39:16.064Z,13.02
2022-10-13T09:41:43.916Z,13.65
2022-10-13T09:44:30.571Z,13.88
2022-10-13T09:47:01.062Z,14.95
2022-10-13T09:49:42.799Z,15.75
2022-10-13T09:52:12.293Z,13.85
2022-10-13T09:54:50.992Z,13.20
2022-10-13T09:57:33.284Z,13.75
2022-10-13T10:00:28.205Z,14.32
2022-10-13T10:03:04.826Z,13.38
2022-10-13T10:05:50.629Z,13.20
2022-10-13T10:08:28.802Z,13.52
2022-10-13T10:11:10.395Z,13.80
2022-10-13T10:13:37.093Z,13.95
2022-10-13T10:16:31.688Z,13.30
2022-10-13T10:19:34.575Z,13.55
2022-10-13T10:22:15.582Z,13.60
2022-10-13T10:25:00.948Z,13.75
2022-10-13T10:27:39.972Z,12.95
2022-10-13T10:30:20.295Z,14.15
2022-10-13T10:33:13.800Z,15.00
2022-10-13T10:35:59.016Z,14.10
2022-10-13T10:38:43.918Z,12.82
2022-10-13T10:41:45.152Z,13.95
2022-10-13T10:44:22.368Z,13.70
2022-10-13T10:46:54.823Z,13.70
2022-10-13T10:49:30.904Z,13.75
2022-10-13T10:51:59.976Z,13.40
2022-10-13T10:54:37.188Z,14.35
2022-10-13T10:57:22.407Z,13.18
2022-10-13T11:00:03.576Z,14.02
2022-10-13T11:03:03.821Z,13.32
2022-10-13T11:06:05.323Z,12.85
2022-10-13T11:08:37.770Z,13.57
2022-10-13T11:11:26.622Z,12.75
2022-10-13T11:13:59.924Z,13.20
2022-10-13T11:16:29.332Z,14.25
2022-10-13T11:19:08.475Z,13.90
2022-10-13T11:21:53.868Z,13.68
2022-10-13T11:24:42.405Z,14.50
2022-10-13T11:27:11.636Z,13.90
2022-10-13T11:29:44.215Z,13.68
2022-10-13T11:32:35.138Z,13.18
2022-10-13T11:35:04.622Z,12.93
2022-10-13T11:38:05.749Z,12.60
2022-10-13T11:40:44.134Z,14.60
2022-10-13T11:43:38.435Z,12.32
2022-10-13T11:46:24.255Z,12.77
2022-10-13T11:49:09.703Z,11.98
2022-10-13T11:52:02.603Z,12.32
2022-10-13T11:54:50.333Z,12.68
2022-10-13T11:57:23.243Z,11.70
2022-10-13T11:59:54.713Z,11.57
2022-10-13T12:02:24.200Z,11.48
2022-10-13T12:05:25.544Z,12.05
2022-10-13T12:08:04.325Z,13.02
2022-10-13T12:10:35.435Z,13.13
2022-10-13T12:13:04.415Z,12.20
2022-10-13T12:15:36.834Z,11.75
2022-10-13T12:18:20.509Z,12.63
2022-10-13T12:20:55.552Z,12.45
2022-10-13T12:23:22.452Z,11.52
2022-10-13T12:25:56.463Z,11.93
2022-10-13T12:28:25.906Z,12.43
2022-10-13T12:30:58.444Z,11.13
2022-10-13T12:33:38.756Z,11.13
2022-10-13T12:36:18.687Z,12.00
2022-10-13T12:38:54.073Z,12.07
2022-10-13T12:41:26.930Z,12.23
2022-10-13T12:43:54.193Z,12.88
2022-10-13T12:46:39.168Z,11.93
2022-10-13T12:49:07.917Z,10.75
2022-10-13T12:51:36.930Z,11.88
2022-10-13T12:54:18.431Z,12.25
2022-10-13T12:56:45.232Z,11.83
2022-10-13T12:59:18.091Z,11.32
2022-10-13T13:01:45.589Z,10.40
2022-10-13T13:04:29.565Z,10.60
2022-10-13T13:06:58.941Z,10.70
2022-10-13T13:09:29.362Z,10.52
2022-10-13T13:12:11.057Z,10.55
2022-10-13T13:14:49.234Z,11.52
2022-10-13T13:17:38.518Z,11.88
2022-10-13T13:20:20.262Z,12.27
2022-10-13T13:22:46.926Z,11.43
2022-10-13T13:25:14.839Z,12.07
2022-10-13T13:27:41.693Z,9.90
2022-10-13T13:30:13.335Z,10.90
2022-10-13T13:32:40.555Z,10.50
2022-10-13T13:35:07.580Z,10.25
2022-10-13T13:37:40.280Z,10.55
2022-10-13T13:40:13.804Z,9.38
2022-10-13T13:42:40.242Z,10.35
2022-10-13T13:45:07.794Z,10.82
2022-10-13T13:47:34.402Z,10.05
2022-10-13T13:50:01.124Z,10.27
2022-10-13T13:52:28.044Z,10.45
2022-10-13T13:54:56.077Z,10.93
2022-10-13T13:57:23.092Z,10.15
2022-10-13T13:59:49.751Z,10.70
2022-10-13T14:02:20.197Z,10.18
2022-10-13T14:04:47.217Z,10.80
2022-10-13T14:07:14.006Z,10.63
2022-10-13T14:09:40.710Z,9.43
2022-10-13T14:12:07.448Z,9.63
2022-10-13T14:14:34.475Z,10.88
2022-10-13T14:17:01.759Z,9.77
2022-10-13T14:19:30.726Z,10.32
2022-10-13T14:21:57.262Z,8.52
2022-10-13T14:24:23.916Z,10.48
2022-10-13T14:26:53.103Z,10.48
2022-10-13T14:29:22.166Z,10.52
2022-10-13T14:31:48.849Z,10.88
2022-10-13T14:34:15.429Z,11.18
2022-10-13T14:36:43.004Z,10.05
2022-10-13T14:39:11.471Z,11.00
2022-10-13T14:41:38.892Z,10.90
2022-10-13T14:44:05.563Z,12.32
2022-10-13T14:46:32.434Z,14.60
2022-10-13T14:48:59.091Z,12.70
2022-10-13T14:51:25.524Z,10.65
2022-10-13T14:53:51.992Z,11.25
2022-10-13T14:56:24.051Z,11.60
2022-10-13T14:58:52.909Z,9.80
2022-10-13T15:01:20.276Z,10.73
2022-10-13T15:03:47.231Z,11.80
2022-10-13T15:06:16.424Z,10.45
2022-10-13T15:08:44.695Z,10.85
2022-10-13T15:11:12.246Z,12.65
2022-10-13T15:13:39.124Z,19.60
2022-10-13T15:16:07.341Z,13.07
2022-10-13T15:18:36.093Z,12.50
2022-10-13T15:21:04.846Z,11.73
2022-10-13T15:23:32.649Z,13.60
2022-10-13T15:26:01.116Z,12.60
2022-10-13T15:28:43.394Z,13.68
2022-10-13T15:33:37.261Z,13.52
2022-10-13T15:36:04.106Z,12.73
2022-10-13T15:38:32.196Z,12.13
2022-10-13T15:40:59.890Z,10.93
2022-10-13T15:43:26.776Z,11.20
2022-10-13T15:46:00.336Z,11.88
2022-10-13T15:48:27.486Z,12.10
2022-10-13T15:50:54.244Z,12.52
2022-10-13T15:53:21.248Z,11.70
2022-10-13T15:55:48.475Z,11.55
2022-10-13T15:58:15.662Z,11.52
2022-10-13T16:00:42.847Z,11.38
2022-10-13T16:03:17.802Z,11.30
2022-10-13T16:05:45.482Z,12.43
2022-10-13T16:08:12.663Z,13.57
2022-10-13T16:10:41.185Z,11.80
2022-10-13T16:13:08.943Z,11.32
2022-10-13T16:15:35.510Z,11.48
2022-10-13T16:18:02.376Z,11.82
2022-10-13T16:20:34.174Z,13.25
2022-10-13T16:23:01.528Z,13.15
2022-10-13T16:25:27.955Z,11.52
2022-10-13T16:27:54.724Z,11.10
2022-10-13T16:30:21.563Z,10.88
2022-10-13T16:32:48.132Z,10.75
2022-10-13T16:35:15.071Z,11.45
2022-10-13T16:37:43.777Z,12.00
2022-10-13T16:40:10.878Z,11.68
2022-10-13T16:42:37.979Z,12.73
2022-10-13T16:45:05.452Z,14.40
2022-10-13T16:47:32.182Z,15.05
2022-10-13T16:49:58.628Z,14.07
2022-10-13T16:52:25.285Z,13.85
2022-10-13T16:55:00.855Z,14.50
2022-10-13T16:57:29.844Z,14.35
2022-10-13T16:59:56.268Z,14.55
2022-10-13T17:02:23.098Z,15.27
2022-10-13T17:04:52.734Z,14.95
2022-10-13T17:07:19.977Z,14.55
2022-10-13T17:09:47.364Z,13.30
2022-10-13T17:12:14.566Z,12.25
2022-10-13T17:14:41.851Z,14.18
2022-10-13T17:17:08.434Z,11.85
2022-10-13T17:19:35.499Z,12.57
2022-10-13T17:22:02.277Z,12.13
2022-10-13T17:24:29.858Z,14.73
2022-10-13T17:26:56.626Z,12.45
2022-10-13T17:29:25.352Z,11.95
2022-10-13T17:31:52.552Z,13.10
2022-10-13T17:34:21.018Z,12.00
2022-10-13T17:36:47.784Z,11.93
2022-10-13T17:39:14.546Z,11.82
2022-10-13T17:41:41.335Z,12.18
2022-10-13T17:44:08.347Z,12.43
2022-10-13T17:46:38.066Z,12.00
2022-10-13T17:49:07.558Z,11.23
2022-10-13T17:51:34.443Z,11.20
2022-10-13T17:54:01.122Z,11.52
2022-10-13T17:56:28.995Z,13.13
2022-10-13T17:58:55.842Z,12.10
2022-10-13T18:01:27.568Z,16.08
2022-10-13T18:03:56.762Z,17.48
2022-10-13T18:06:23.485Z,15.90
2022-10-13T18:08:50.752Z,15.15
2022-10-13T18:11:20.044Z,15.55
2022-10-13T18:13:47.133Z,16.58
2022-10-13T18:16:19.558Z,16.10
2022-10-13T18:18:47.476Z,15.90
2022-10-13T18:21:17.433Z,18.17
2022-10-13T18:23:44.567Z,18.58
2022-10-13T18:26:14.109Z,19.92
2022-10-13T18:28:43.680Z,22.05
2022-10-13T18:31:13.285Z,23.33
2022-10-13T18:33:40.631Z,20.67
2022-10-13T18:36:16.661Z,19.92
2022-10-13T18:38:43.752Z,19.00
2022-10-13T18:41:10.394Z,19.70
2022-10-13T18:43:37.274Z,25.55
2022-10-13T18:46:04.811Z,24.10
2022-10-13T18:48:34.154Z,24.17
2022-10-13T18:51:09.571Z,23.38
2022-10-13T18:53:37.315Z,23.38
2022-10-13T18:56:32.369Z,24.23
2022-10-13T18:59:01.221Z,22.65
2022-10-13T19:01:30.809Z,23.25
2022-10-13T19:03:58.041Z,22.80
2022-10-13T19:06:27.346Z,22.85
2022-10-13T19:08:56.307Z,23.02
2022-10-13T19:11:30.176Z,22.67
2022-10-13T19:14:01.397Z,23.88
2022-10-13T19:16:30.338Z,22.85
2022-10-13T19:18:57.452Z,22.15
2022-10-13T19:21:24.759Z,26.17
2022-10-13T19:23:51.299Z,23.73
2022-10-13T19:26:21.563Z,22.83
2022-10-13T19:28:48.159Z,23.52
2022-10-13T19:31:18.021Z,23.63
2022-10-13T19:33:46.957Z,25.10
2022-10-13T19:36:23.826Z,26.13
2022-10-13T19:38:50.697Z,28.58
2022-10-13T19:41:18.123Z,28.35
2022-10-13T19:43:44.788Z,29.48
2022-10-13T19:46:11.945Z,30.75
2022-10-13T19:48:39.544Z,29.20
2022-10-13T19:51:07.970Z,29.02
2022-10-13T19:53:38.861Z,27.65
2022-10-13T19:56:06.537Z,26.50
2022-10-13T19:58:33.855Z,25.65
2022-10-13T20:01:06.007Z,27.40
2022-10-13T20:03:34.872Z,24.98
2022-10-13T20:06:05.920Z,26.75
2022-10-13T20:08:32.341Z,27.52
2022-10-13T20:11:00.642Z,27.85
2022-10-13T20:13:27.381Z,27.65
2022-10-13T20:15:54.855Z,26.85
2022-10-13T20:18:21.254Z,29.48
2022-10-13T20:20:47.791Z,27.55
2022-10-13T20:23:14.248Z,28.45
2022-10-13T20:25:40.841Z,27.25
2022-10-13T20:28:07.291Z,28.77
2022-10-13T20:30:34.949Z,27.83
2022-10-13T20:33:01.573Z,27.33
2022-10-13T20:35:28.164Z,28.25
2022-10-13T20:37:55.259Z,26.88
2022-10-13T20:40:22.202Z,27.33
2022-10-13T20:42:50.728Z,28.30
2022-10-13T20:45:17.891Z,29.10
2022-10-13T20:47:44.643Z,27.80
2022-10-13T20:50:11.847Z,29.10
2022-10-13T20:52:38.813Z,28.30
2022-10-13T20:55:05.372Z,29.45
2022-10-13T20:57:31.856Z,29.20
2022-10-13T20:59:58.422Z,29.20
2022-10-13T21:02:28.306Z,29.83
2022-10-13T21:04:55.218Z,30.83
2022-10-13T21:07:22.423Z,31.95
2022-10-13T21:09:53.683Z,32.90
2022-10-13T21:12:23.960Z,33.20
2022-10-13T21:14:50.753Z,31.92
2022-10-13T21:17:17.299Z,31.80
2022-10-13T21:19:44.284Z,33.92
2022-10-13T21:22:10.680Z,33.38
2022-10-13T21:24:38.342Z,35.28
2022-10-13T21:27:05.169Z,36.70
2022-10-13T21:29:33.541Z,35.28
2022-10-13T21:32:00.135Z,36.55
2022-10-13T21:34:27.473Z,36.40
2022-10-13T21:36:54.336Z,36.22
2022-10-13T21:39:21.198Z,36.35
2022-10-13T21:41:49.014Z,39.00
2022-10-13T21:44:18.852Z,38.67
2022-10-13T21:46:45.312Z,37.83
2022-10-13T21:49:17.719Z,38.00
2022-10-13T21:51:44.408Z,38.22
2022-10-13T21:54:15.407Z,40.22
2022-10-13T21:56:42.518Z,40.70
2022-10-13T21:59:12.886Z,40.83
2022-10-13T22:01:41.387Z,39.80
2022-10-13T22:04:12.882Z,40.33
2022-10-13T22:06:45.160Z,40.08
2022-10-13T22:11:41.024Z,39.53
2022-10-13T22:14:09.145Z,40.50
2022-10-13T22:16:45.707Z,41.33
2022-10-13T22:19:13.129Z,42.42
2022-10-13T22:21:43.163Z,42.42
2022-10-13T22:24:15.297Z,42.97
2022-10-13T22:29:14.943Z,39.92
2022-10-13T22:31:41.775Z,42.42
2022-10-13T22:34:10.282Z,40.55
2022-10-13T22:36:41.023Z,41.50
2022-10-13T22:39:10.583Z,41.55
2022-10-13T22:41:40.183Z,41.42
2022-10-13T22:44:08.695Z,38.90
2022-10-13T22:46:38.088Z,41.53
2022-10-13T22:49:06.291Z,40.80
2022-10-13T22:51:35.094Z,40.45
2022-10-13T22:54:02.333Z,40.58
2022-10-13T22:56:32.752Z,40.17
2022-10-13T22:59:06.055Z,40.78
2022-10-13T23:01:33.631Z,41.13
2022-10-13T23:04:00.693Z,42.63
2022-10-13T23:06:32.919Z,39.15
2022-10-13T23:11:28.207Z,38.83
2022-10-13T23:13:55.823Z,39.85
2022-10-13T23:16:25.355Z,39.55
2022-10-13T23:18:52.764Z,38.72
2022-10-13T23:21:23.349Z,39.25
2022-10-13T23:24:01.737Z,39.80
2022-10-13T23:26:29.300Z,38.85
2022-10-13T23:28:56.598Z,39.90
2022-10-13T23:31:26.062Z,41.58
2022-10-13T23:33:53.323Z,39.70
2022-10-13T23:36:23.375Z,39.40
2022-10-13T23:39:02.144Z,40.13
2022-10-13T23:41:29.145Z,39.03
2022-10-13T23:43:55.766Z,40.20
2022-10-13T23:46:22.671Z,40.45
2022-10-13T23:48:49.259Z,38.72
2022-10-13T23:51:21.991Z,39.13
2022-10-13T23:53:48.893Z,38.00
2022-10-13T23:56:15.838Z,41.70
2022-10-13T23:58:43.560Z,39.72
